Details for BMI Regional at EGGD




Go Back


Latest METAR
Local Time

EGGD 240750Z AUTO 04008KT 6000 OVC004 10/10 Q1021

24/05/2018, 09:04:40

Description
Results
BMI Regional Logo
Number of Pilots based at EGGD
2 Pilots Based here
Number of BMI Regional Flights Departed from EGGD
1 Flights Departed
Number of BMI Regional Flights Arrived at EGGD
0 Flights Arrived
Number of BMI Regional Schedules Departing from EGGD
27 Schedules
Number of BMI Regional Schedules Arriving at EGGD
27 Schedules
Number of BMI Regional Schedules Departing from EGGD availible today
14 Schedules Today
Number of BMI Regional Schedules Arriving at EGGD availible today
14 Schedules Today
Average Landing Rate at EGGD
-228 fpm
BMI Regional Average Landing Rate at EGGD
0 fpm
Total Fuel Purchased at EGGD by BMI Regional
1,692.35 kgs / 3,730.95 lbs

Pilots Based at EGGD


Pilot ID
Pilot Name
Pilot Rank
No. of Flights
No. of Flying Hours
Mark Callison
828
2376.33
Justin Fryer
1
2.32
Content